Time,TemperatureF,DewpointF,PressureIn,WindDirection,WindDirectionDegrees,WindSpeedMPH,WindSpeedGustMPH,Humidity,HourlyPrecipIn,Conditions,Clouds,dailyrainin,SoftwareType,DateUTC
2013-05-11 00:03:00,65.3,58.3,29.94,ENE,66,1.0,2.0,78,0.00,,,0.00,Wunderground v.1.15,2013-05-11 05:03:00,
2013-05-11 00:09:00,65.3,58.3,29.93,NNW,337,2.0,3.0,78,0.00,,,0.00,Wunderground v.1.15,2013-05-11 05:09:00,
2013-05-11 00:15:00,65.4,58.4,29.94,NNE,27,1.0,2.0,78,0.00,,,0.00,Wunderground v.1.15,2013-05-11 05:15:00,
2013-05-11 00:20:00,65.4,58.4,29.94,NNE,12,2.0,2.0,78,0.00,,,0.00,Wunderground v.1.15,2013-05-11 05:20:00,
2013-05-11 00:25:00,65.2,58.2,29.94,NNE,13,2.0,2.0,78,0.00,,,0.00,Wunderground v.1.15,2013-05-11 05:25:00,
2013-05-11 00:31:00,65.0,58.3,29.93,NE,46,1.0,1.0,79,0.00,,,0.00,Wunderground v.1.15,2013-05-11 05:31:00,
2013-05-11 00:36:00,64.9,58.2,29.93,NNW,344,1.0,2.0,79,0.00,,,0.00,Wunderground v.1.15,2013-05-11 05:36:00,
2013-05-11 00:41:00,64.8,58.1,29.93,NNE,33,1.0,1.0,79,0.00,,,0.00,Wunderground v.1.15,2013-05-11 05:41:00,
2013-05-11 00:47:00,64.7,58.4,29.93,North,352,1.0,1.0,80,0.00,,,0.00,Wunderground v.1.15,2013-05-11 05:47:00,
2013-05-11 00:52:00,64.5,58.2,29.93,North,2,1.0,4.0,80,0.00,,,0.00,Wunderground v.1.15,2013-05-11 05:52:00,
2013-05-11 00:57:00,64.4,58.4,29.93,NNW,345,1.0,4.0,81,0.00,,,0.00,Wunderground v.1.15,2013-05-11 05:57:00,
2013-05-11 01:03:00,64.1,58.5,29.92,NNE,20,1.0,1.0,82,0.00,,,0.00,Wunderground v.1.15,2013-05-11 06:03:00,
2013-05-11 01:08:00,64.1,58.5,29.93,ENE,58,0.0,2.0,82,0.00,,,0.00,Wunderground v.1.15,2013-05-11 06:08:00,
2013-05-11 01:13:00,64.0,58.4,29.93,North,359,0.0,1.0,82,0.00,,,0.00,Wunderground v.1.15,2013-05-11 06:13:00,
2013-05-11 01:19:00,63.9,58.6,29.93,North,352,0.0,2.0,83,0.00,,,0.00,Wunderground v.1.15,2013-05-11 06:19:00,
2013-05-11 01:24:00,63.8,58.5,29.93,NE,47,1.0,1.0,83,0.00,,,0.00,Wunderground v.1.15,2013-05-11 06:24:00,
2013-05-11 01:29:00,63.7,58.8,29.93,North,358,1.0,2.0,84,0.00,,,0.00,Wunderground v.1.15,2013-05-11 06:29:00,
2013-05-11 01:34:00,63.4,59.1,29.93,NE,41,1.0,1.0,86,0.00,,,0.00,Wunderground v.1.15,2013-05-11 06:34:00,
2013-05-11 01:40:00,62.6,58.7,29.92,NNW,348,1.0,1.0,87,0.00,,,0.00,Wunderground v.1.15,2013-05-11 06:40:00,
2013-05-11 01:45:00,62.1,58.8,29.92,North,4,1.0,1.0,89,0.00,,,0.00,Wunderground v.1.15,2013-05-11 06:45:00,
2013-05-11 01:50:00,61.6,58.6,29.92,NNE,15,1.0,1.0,90,0.00,,,0.00,Wunderground v.1.15,2013-05-11 06:50:00,
2013-05-11 01:55:00,61.3,58.7,29.91,North,8,1.0,1.0,91,0.00,,,0.00,Wunderground v.1.15,2013-05-11 06:55:00,
2013-05-11 02:01:00,61.3,58.7,29.92,NE,43,1.0,1.0,91,0.00,,,0.00,Wunderground v.1.15,2013-05-11 07:01:00,
2013-05-11 02:06:00,61.2,58.9,29.92,NE,43,1.0,1.0,92,0.00,,,0.00,Wunderground v.1.15,2013-05-11 07:06:00,
2013-05-11 02:11:00,61.3,58.7,29.92,NE,51,1.0,1.0,91,0.00,,,0.00,Wunderground v.1.15,2013-05-11 07:11:00,
2013-05-11 02:17:00,61.6,58.9,29.92,North,8,1.0,1.0,91,0.00,,,0.00,Wunderground v.1.15,2013-05-11 07:17:00,
2013-05-11 02:22:00,61.7,58.7,29.91,NNE,15,1.0,2.0,90,0.00,,,0.00,Wunderground v.1.15,2013-05-11 07:22:00,
2013-05-11 02:27:00,62.0,58.7,29.91,NNE,33,1.0,2.0,89,0.00,,,0.01,Wunderground v.1.15,2013-05-11 07:27:00,
2013-05-11 02:33:00,62.1,58.8,29.91,NNW,347,1.0,1.0,89,0.00,,,0.01,Wunderground v.1.15,2013-05-11 07:33:00,
2013-05-11 02:38:00,62.2,59.2,29.91,West,268,1.0,1.0,90,0.00,,,0.01,Wunderground v.1.15,2013-05-11 07:38:00,
2013-05-11 02:43:00,61.8,59.1,29.91,WNW,294,1.0,1.0,91,0.00,,,0.01,Wunderground v.1.15,2013-05-11 07:43:00,
2013-05-11 02:48:00,61.4,59.1,29.91,NW,324,1.0,1.0,92,0.00,,,0.01,Wunderground v.1.15,2013-05-11 07:48:00,
2013-05-11 02:54:00,61.1,59.1,29.91,North,10,0.0,1.0,93,0.00,,,0.01,Wunderground v.1.15,2013-05-11 07:54:00,
2013-05-11 02:59:00,60.9,58.9,29.91,NNE,32,0.0,1.0,93,0.00,,,0.01,Wunderground v.1.15,2013-05-11 07:59:00,
2013-05-11 03:04:00,61.0,59.0,29.91,NNE,30,0.0,1.0,93,0.00,,,0.01,Wunderground v.1.15,2013-05-11 08:04:00,
2013-05-11 03:10:00,61.0,59.0,29.91,NNE,27,0.0,1.0,93,0.00,,,0.01,Wunderground v.1.15,2013-05-11 08:10:00,
2013-05-11 03:15:00,61.2,59.2,29.91,North,1,0.0,2.0,93,0.00,,,0.01,Wunderground v.1.15,2013-05-11 08:15:00,
2013-05-11 03:20:00,61.4,59.1,29.91,North,5,0.0,1.0,92,0.00,,,0.01,Wunderground v.1.15,2013-05-11 08:20:00,
2013-05-11 03:25:00,61.6,59.3,29.91,North,6,0.0,1.0,92,0.00,,,0.01,Wunderground v.1.15,2013-05-11 08:25:00,
2013-05-11 03:31:00,61.6,59.3,29.91,North,6,0.0,1.0,92,0.00,,,0.01,Wunderground v.1.15,2013-05-11 08:31:00,
2013-05-11 03:36:00,61.5,59.2,29.91,North,6,0.0,1.0,92,0.00,,,0.01,Wunderground v.1.15,2013-05-11 08:36:00,
2013-05-11 03:41:00,61.6,59.3,29.91,North,6,0.0,1.0,92,0.00,,,0.01,Wunderground v.1.15,2013-05-11 08:41:00,
2013-05-11 03:47:00,61.6,59.3,29.91,NNE,13,0.0,2.0,92,0.00,,,0.02,Wunderground v.1.15,2013-05-11 08:47:00,
2013-05-11 03:52:00,61.4,59.4,29.91,North,8,1.0,1.0,93,0.23,,,0.04,Wunderground v.1.15,2013-05-11 08:52:00,
2013-05-11 03:57:00,61.3,59.3,29.91,NNW,344,0.0,1.0,93,0.11,,,0.05,Wunderground v.1.15,2013-05-11 08:57:00,
2013-05-11 04:03:00,61.1,59.4,29.91,NNW,347,0.0,1.0,94,0.05,,,0.05,Wunderground v.1.15,2013-05-11 09:03:00,
2013-05-11 04:09:00,60.9,59.2,29.91,NNW,347,0.0,1.0,94,0.00,,,0.05,Wunderground v.1.15,2013-05-11 09:09:00,
2013-05-11 04:14:00,60.8,59.1,29.91,NNW,347,0.0,1.0,94,0.00,,,0.05,Wunderground v.1.15,2013-05-11 09:14:00,
2013-05-11 04:19:00,60.7,59.3,29.91,NNW,347,0.0,1.0,95,0.00,,,0.05,Wunderground v.1.15,2013-05-11 09:19:00,
2013-05-11 04:25:00,60.5,59.1,29.91,NNW,348,0.0,1.0,95,0.00,,,0.05,Wunderground v.1.15,2013-05-11 09:25:00,
2013-05-11 04:30:00,60.5,59.1,29.90,NNW,348,0.0,1.0,95,0.00,,,0.05,Wunderground v.1.15,2013-05-11 09:30:00,
2013-05-11 04:35:00,60.5,59.1,29.90,NNW,347,0.0,1.0,95,0.00,,,0.05,Wunderground v.1.15,2013-05-11 09:35:00,
2013-05-11 04:41:00,60.6,59.2,29.90,North,349,0.0,1.0,95,0.00,,,0.05,Wunderground v.1.15,2013-05-11 09:41:00,
2013-05-11 04:46:00,60.7,59.3,29.90,NNE,12,0.0,1.0,95,0.00,,,0.05,Wunderground v.1.15,2013-05-11 09:46:00,
2013-05-11 04:51:00,60.7,59.3,29.90,NNE,13,0.0,1.0,95,0.00,,,0.05,Wunderground v.1.15,2013-05-11 09:51:00,
2013-05-11 04:56:00,60.8,59.4,29.90,NNE,13,0.0,1.0,95,0.00,,,0.05,Wunderground v.1.15,2013-05-11 09:56:00,
2013-05-11 05:02:00,60.8,59.4,29.90,NNE,13,0.0,1.0,95,0.00,,,0.05,Wunderground v.1.15,2013-05-11 10:02:00,
2013-05-11 05:07:00,60.8,59.4,29.90,NNE,13,0.0,1.0,95,0.00,,,0.05,Wunderground v.1.15,2013-05-11 10:07:00,
2013-05-11 05:12:00,60.7,59.3,29.89,NNE,13,0.0,1.0,95,0.00,,,0.05,Wunderground v.1.15,2013-05-11 10:12:00,
2013-05-11 05:18:00,60.7,59.6,29.89,NNE,13,0.0,1.0,96,0.00,,,0.05,Wunderground v.1.15,2013-05-11 10:18:00,
2013-05-11 05:23:00,60.6,59.5,29.90,NNE,13,0.0,1.0,96,0.00,,,0.05,Wunderground v.1.15,2013-05-11 10:23:00,
2013-05-11 05:28:00,60.5,59.4,29.90,NNE,13,0.0,1.0,96,0.00,,,0.05,Wunderground v.1.15,2013-05-11 10:28:00,
2013-05-11 05:33:00,60.4,59.3,29.90,ENE,66,0.0,1.0,96,0.00,,,0.05,Wunderground v.1.15,2013-05-11 10:33:00,
2013-05-11 05:39:00,60.5,59.4,29.90,NNE,16,0.0,1.0,96,0.00,,,0.05,Wunderground v.1.15,2013-05-11 10:39:00,
2013-05-11 05:44:00,60.4,59.3,29.90,North,10,0.0,1.0,96,0.00,,,0.05,Wunderground v.1.15,2013-05-11 10:44:00,
2013-05-11 05:49:00,60.5,59.4,29.90,North,6,0.0,1.0,96,0.00,,,0.05,Wunderground v.1.15,2013-05-11 10:49:00,
2013-05-11 05:55:00,60.5,59.4,29.91,North,355,0.0,1.0,96,0.00,,,0.05,Wunderground v.1.15,2013-05-11 10:55:00,
2013-05-11 06:00:00,60.6,59.5,29.91,North,355,0.0,1.0,96,0.00,,,0.05,Wunderground v.1.15,2013-05-11 11:00:00,
2013-05-11 06:05:00,60.5,59.4,29.91,North,356,0.0,1.0,96,0.00,,,0.06,Wunderground v.1.15,2013-05-11 11:05:00,
2013-05-11 06:11:00,60.6,59.5,29.91,North,355,0.0,1.0,96,0.14,,,0.07,Wunderground v.1.15,2013-05-11 11:11:00,
2013-05-11 06:17:00,60.7,59.6,29.91,North,355,0.0,1.0,96,0.06,,,0.07,Wunderground v.1.15,2013-05-11 11:17:00,
2013-05-11 06:22:00,60.7,59.6,29.91,North,1,0.0,1.0,96,0.04,,,0.07,Wunderground v.1.15,2013-05-11 11:22:00,
2013-05-11 06:27:00,60.7,59.6,29.92,North,1,1.0,1.0,96,0.29,,,0.10,Wunderground v.1.15,2013-05-11 11:27:00,
2013-05-11 06:33:00,60.6,59.5,29.92,NNE,23,0.0,1.0,96,0.24,,,0.12,Wunderground v.1.15,2013-05-11 11:33:00,
2013-05-11 06:38:00,60.6,59.5,29.92,NNE,23,0.0,1.0,96,0.08,,,0.12,Wunderground v.1.15,2013-05-11 11:38:00,
2013-05-11 06:43:00,60.7,59.6,29.92,North,354,0.0,1.0,96,0.05,,,0.12,Wunderground v.1.15,2013-05-11 11:43:00,
2013-05-11 06:49:00,60.8,59.9,29.92,NNE,23,1.0,1.0,97,0.00,,,0.12,Wunderground v.1.15,2013-05-11 11:49:00,
2013-05-11 06:54:00,60.9,60.0,29.92,NNE,16,1.0,1.0,97,0.00,,,0.12,Wunderground v.1.15,2013-05-11 11:54:00,
2013-05-11 06:59:00,61.0,60.1,29.92,North,8,0.0,1.0,97,0.00,,,0.12,Wunderground v.1.15,2013-05-11 11:59:00,
2013-05-11 07:04:00,61.1,60.2,29.92,WNW,293,0.0,1.0,97,0.00,,,0.12,Wunderground v.1.15,2013-05-11 12:04:00,
2013-05-11 07:10:00,61.3,60.4,29.92,WNW,294,0.0,1.0,97,0.00,,,0.12,Wunderground v.1.15,2013-05-11 12:10:00,
2013-05-11 07:15:00,61.4,60.5,29.92,WNW,293,0.0,1.0,97,0.00,,,0.12,Wunderground v.1.15,2013-05-11 12:15:00,
2013-05-11 07:20:00,61.5,60.6,29.92,WNW,293,0.0,1.0,97,0.00,,,0.12,Wunderground v.1.15,2013-05-11 12:20:00,
2013-05-11 07:26:00,61.6,60.7,29.92,WNW,293,0.0,1.0,97,0.00,,,0.12,Wunderground v.1.15,2013-05-11 12:26:00,
2013-05-11 07:31:00,61.7,60.8,29.92,WNW,291,0.0,1.0,97,0.00,,,0.12,Wunderground v.1.15,2013-05-11 12:31:00,
2013-05-11 07:36:00,61.8,60.9,29.92,North,3,0.0,1.0,97,0.00,,,0.12,Wunderground v.1.15,2013-05-11 12:36:00,
2013-05-11 07:42:00,61.8,60.9,29.92,North,2,1.0,2.0,97,0.00,,,0.12,Wunderground v.1.15,2013-05-11 12:42:00,
2013-05-11 07:47:00,62.0,61.1,29.92,North,1,1.0,2.0,97,0.00,,,0.12,Wunderground v.1.15,2013-05-11 12:47:00,
2013-05-11 07:52:00,62.3,61.4,29.92,North,5,0.0,1.0,97,0.00,,,0.12,Wunderground v.1.15,2013-05-11 12:52:00,
2013-05-11 07:57:00,62.7,61.8,29.92,North,359,0.0,2.0,97,0.00,,,0.12,Wunderground v.1.15,2013-05-11 12:57:00,
2013-05-11 08:03:00,62.8,61.6,29.92,NE,55,1.0,1.0,96,0.00,,,0.12,Wunderground v.1.15,2013-05-11 13:03:00,
2013-05-11 08:08:00,63.2,62.0,29.92,NE,51,1.0,2.0,96,0.00,,,0.12,Wunderground v.1.15,2013-05-11 13:08:00,
2013-05-11 08:13:00,63.5,62.0,29.92,NE,39,1.0,2.0,95,0.00,,,0.12,Wunderground v.1.15,2013-05-11 13:13:00,
2013-05-11 08:19:00,63.8,62.3,29.91,NNE,22,1.0,2.0,95,0.00,,,0.12,Wunderground v.1.15,2013-05-11 13:19:00,
2013-05-11 08:24:00,64.1,62.6,29.91,NNW,338,1.0,1.0,95,0.00,,,0.12,Wunderground v.1.15,2013-05-11 13:24:00,
2013-05-11 08:29:00,64.5,63.0,29.91,WNW,291,1.0,3.0,95,0.00,,,0.12,Wunderground v.1.15,2013-05-11 13:29:00,
2013-05-11 08:34:00,64.9,63.4,29.91,North,6,1.0,3.0,95,0.00,,,0.12,Wunderground v.1.15,2013-05-11 13:34:00,
2013-05-11 08:40:00,65.1,63.0,29.91,NNW,342,2.0,2.0,93,0.00,,,0.12,Wunderground v.1.15,2013-05-11 13:40:00,
2013-05-11 08:45:00,65.4,63.3,29.91,NE,47,2.0,2.0,93,0.00,,,0.12,Wunderground v.1.15,2013-05-11 13:45:00,
2013-05-11 08:50:00,65.8,63.7,29.91,NE,50,1.0,1.0,93,0.00,,,0.12,Wunderground v.1.15,2013-05-11 13:50:00,
2013-05-11 08:56:00,65.9,63.5,29.91,ENE,66,1.0,3.0,92,0.00,,,0.12,Wunderground v.1.15,2013-05-11 13:56:00,
2013-05-11 09:01:00,65.9,63.5,29.91,NNE,23,2.0,2.0,92,0.00,,,0.12,Wunderground v.1.15,2013-05-11 14:01:00,
2013-05-11 09:06:00,66.2,63.8,29.92,NE,55,1.0,3.0,92,0.00,,,0.12,Wunderground v.1.15,2013-05-11 14:06:00,
2013-05-11 09:12:00,66.6,63.9,29.92,NE,51,1.0,2.0,91,0.00,,,0.12,Wunderground v.1.15,2013-05-11 14:12:00,
2013-05-11 09:18:00,66.7,63.4,29.92,NE,41,2.0,2.0,89,0.00,,,0.12,Wunderground v.1.15,2013-05-11 14:18:00,
2013-05-11 09:23:00,66.6,63.6,29.92,WNW,292,2.0,2.0,90,0.00,,,0.12,Wunderground v.1.15,2013-05-11 14:23:00,
2013-05-11 09:28:00,67.0,63.6,29.92,NE,37,2.0,5.0,89,0.00,,,0.12,Wunderground v.1.15,2013-05-11 14:28:00,
2013-05-11 09:34:00,67.2,63.8,29.93,North,3,2.0,5.0,89,0.00,,,0.12,Wunderground v.1.15,2013-05-11 14:34:00,
2013-05-11 09:39:00,67.3,63.6,29.93,NE,47,2.0,5.0,88,0.00,,,0.12,Wunderground v.1.15,2013-05-11 14:39:00,
2013-05-11 09:44:00,67.3,63.9,29.93,NE,41,2.0,3.0,89,0.00,,,0.12,Wunderground v.1.15,2013-05-11 14:44:00,
2013-05-11 09:50:00,67.5,64.1,29.92,NE,45,2.0,3.0,89,0.00,,,0.12,Wunderground v.1.15,2013-05-11 14:50:00,
2013-05-11 09:55:00,67.7,64.0,29.92,NE,47,2.0,3.0,88,0.00,,,0.12,Wunderground v.1.15,2013-05-11 14:55:00,
2013-05-11 10:00:00,68.1,64.1,29.92,ENE,72,2.0,2.0,87,0.00,,,0.12,Wunderground v.1.15,2013-05-11 15:00:00,
2013-05-11 10:05:00,68.1,64.1,29.92,NE,43,1.0,3.0,87,0.00,,,0.12,Wunderground v.1.15,2013-05-11 15:05:00,
2013-05-11 10:11:00,68.3,64.3,29.92,NNE,27,1.0,2.0,87,0.00,,,0.12,Wunderground v.1.15,2013-05-11 15:11:00,
2013-05-11 10:16:00,68.5,64.8,29.91,NNE,22,1.0,2.0,88,0.00,,,0.12,Wunderground v.1.15,2013-05-11 15:16:00,
2013-05-11 10:21:00,69.1,65.4,29.91,North,10,1.0,1.0,88,0.00,,,0.12,Wunderground v.1.15,2013-05-11 15:21:00,
2013-05-11 10:27:00,69.7,65.0,29.91,North,355,1.0,2.0,85,0.00,,,0.12,Wunderground v.1.15,2013-05-11 15:27:00,
2013-05-11 10:32:00,70.1,65.4,29.91,West,280,1.0,1.0,85,0.00,,,0.12,Wunderground v.1.15,2013-05-11 15:32:00,
2013-05-11 10:37:00,70.7,65.3,29.91,WNW,294,1.0,4.0,83,0.00,,,0.12,Wunderground v.1.15,2013-05-11 15:37:00,
2013-05-11 10:43:00,71.0,64.5,29.91,North,356,2.0,4.0,80,0.00,,,0.12,Wunderground v.1.15,2013-05-11 15:43:00,
2013-05-11 10:48:00,70.9,65.1,29.91,NW,320,2.0,4.0,82,0.00,,,0.12,Wunderground v.1.15,2013-05-11 15:48:00,
2013-05-11 10:53:00,70.9,65.1,29.91,WNW,299,1.0,4.0,82,0.00,,,0.12,Wunderground v.1.15,2013-05-11 15:53:00,
2013-05-11 10:58:00,71.2,64.4,29.91,NNE,27,1.0,4.0,79,0.00,,,0.12,Wunderground v.1.15,2013-05-11 15:58:00,
2013-05-11 11:04:00,71.3,64.4,29.91,North,355,1.0,4.0,79,0.00,,,0.12,Wunderground v.1.15,2013-05-11 16:04:00,
2013-05-11 11:09:00,71.2,64.4,29.91,NNW,330,1.0,4.0,79,0.00,,,0.12,Wunderground v.1.15,2013-05-11 16:09:00,
2013-05-11 11:15:00,71.0,63.4,29.91,NNW,335,2.0,6.0,77,0.00,,,0.12,Wunderground v.1.15,2013-05-11 16:15:00,
2013-05-11 11:20:00,70.6,64.1,29.91,NE,46,2.0,2.0,80,0.00,,,0.12,Wunderground v.1.15,2013-05-11 16:20:00,
2013-05-11 11:25:00,70.4,64.6,29.92,North,358,1.0,2.0,82,0.00,,,0.12,Wunderground v.1.15,2013-05-11 16:25:00,
2013-05-11 11:31:00,70.2,64.4,29.92,NE,55,1.0,1.0,82,0.00,,,0.12,Wunderground v.1.15,2013-05-11 16:31:00,
2013-05-11 11:36:00,71.0,65.6,29.92,NW,313,1.0,1.0,83,0.00,,,0.12,Wunderground v.1.15,2013-05-11 16:36:00,
2013-05-11 11:41:00,71.7,65.2,29.92,NNW,344,0.0,1.0,80,0.00,,,0.12,Wunderground v.1.15,2013-05-11 16:41:00,
2013-05-11 11:47:00,72.1,63.7,29.91,WNW,302,0.0,2.0,75,0.00,,,0.12,Wunderground v.1.15,2013-05-11 16:47:00,
2013-05-11 11:53:00,72.2,63.1,29.91,WNW,297,1.0,1.0,73,0.00,,,0.12,Wunderground v.1.15,2013-05-11 16:53:00,
2013-05-11 11:58:00,72.6,64.6,29.91,WSW,237,1.0,5.0,76,0.00,,,0.12,Wunderground v.1.15,2013-05-11 16:58:00,
2013-05-11 12:03:00,73.0,63.4,29.91,WSW,246,1.0,2.0,72,0.00,,,0.12,Wunderground v.1.15,2013-05-11 17:03:00,
2013-05-11 12:09:00,73.4,65.0,29.91,North,11,1.0,2.0,75,0.00,,,0.12,Wunderground v.1.15,2013-05-11 17:09:00,
2013-05-11 12:14:00,73.5,62.7,29.90,NNW,345,1.0,3.0,69,0.00,,,0.12,Wunderground v.1.15,2013-05-11 17:14:00,
2013-05-11 12:19:00,73.1,63.1,29.91,NNW,331,1.0,3.0,71,0.00,,,0.12,Wunderground v.1.15,2013-05-11 17:19:00,
2013-05-11 12:25:00,72.7,62.8,29.90,NNE,12,1.0,3.0,71,0.00,,,0.12,Wunderground v.1.15,2013-05-11 17:25:00,
2013-05-11 12:30:00,72.2,63.1,29.90,ESE,112,1.0,1.0,73,0.00,,,0.12,Wunderground v.1.15,2013-05-11 17:30:00,
2013-05-11 12:35:00,72.0,63.3,29.90,NNW,337,1.0,1.0,74,0.00,,,0.12,Wunderground v.1.15,2013-05-11 17:35:00,
2013-05-11 12:40:00,72.7,64.3,29.90,West,271,0.0,1.0,75,0.00,,,0.12,Wunderground v.1.15,2013-05-11 17:40:00,
2013-05-11 12:46:00,73.9,63.1,29.90,NNE,29,1.0,4.0,69,0.00,,,0.12,Wunderground v.1.15,2013-05-11 17:46:00,
2013-05-11 12:51:00,74.1,62.4,29.90,SW,218,1.0,2.0,67,0.00,,,0.12,Wunderground v.1.15,2013-05-11 17:51:00,
2013-05-11 12:57:00,74.4,63.6,29.90,NE,55,1.0,2.0,69,0.00,,,0.12,Wunderground v.1.15,2013-05-11 17:57:00,
2013-05-11 13:02:00,75.3,64.8,29.89,North,5,1.0,2.0,70,0.00,,,0.12,Wunderground v.1.15,2013-05-11 18:02:00,
2013-05-11 13:07:00,75.6,63.0,29.89,West,271,1.0,2.0,65,0.00,,,0.12,Wunderground v.1.15,2013-05-11 18:07:00,
2013-05-11 13:13:00,76.0,63.8,29.89,NNW,342,1.0,1.0,66,0.00,,,0.12,Wunderground v.1.15,2013-05-11 18:13:00,
2013-05-11 13:18:00,76.4,63.3,29.89,ENE,61,1.0,2.0,64,0.00,,,0.12,Wunderground v.1.15,2013-05-11 18:18:00,
2013-05-11 13:23:00,76.6,63.1,29.88,East,81,1.0,2.0,63,0.00,,,0.12,Wunderground v.1.15,2013-05-11 18:23:00,
2013-05-11 13:29:00,76.4,62.9,29.88,East,81,1.0,2.0,63,0.00,,,0.12,Wunderground v.1.15,2013-05-11 18:29:00,
2013-05-11 13:34:00,76.7,64.9,29.88,NNW,338,2.0,2.0,67,0.00,,,0.12,Wunderground v.1.15,2013-05-11 18:34:00,
2013-05-11 13:39:00,77.3,61.9,29.88,East,82,2.0,3.0,59,0.00,,,0.12,Wunderground v.1.15,2013-05-11 18:39:00,
2013-05-11 13:44:00,77.7,63.2,29.88,WSW,245,2.0,3.0,61,0.00,,,0.12,Wunderground v.1.15,2013-05-11 18:44:00,
2013-05-11 13:50:00,77.1,62.1,29.88,NE,43,1.0,1.0,60,0.00,,,0.12,Wunderground v.1.15,2013-05-11 18:50:00,
2013-05-11 13:55:00,76.1,61.7,29.88,NNE,30,2.0,2.0,61,0.00,,,0.12,Wunderground v.1.15,2013-05-11 18:55:00,
2013-05-11 14:00:00,75.8,60.9,29.88,NNW,330,2.0,3.0,60,0.00,,,0.12,Wunderground v.1.15,2013-05-11 19:00:00,
2013-05-11 14:06:00,76.4,61.5,29.88,North,358,2.0,4.0,60,0.00,,,0.12,Wunderground v.1.15,2013-05-11 19:06:00,
2013-05-11 14:11:00,76.9,62.4,29.88,NE,39,2.0,2.0,61,0.00,,,0.12,Wunderground v.1.15,2013-05-11 19:11:00,
2013-05-11 14:16:00,76.8,61.4,29.88,North,9,2.0,3.0,59,0.00,,,0.12,Wunderground v.1.15,2013-05-11 19:16:00,
2013-05-11 14:22:00,75.5,61.1,29.88,West,271,2.0,2.0,61,0.00,,,0.12,Wunderground v.1.15,2013-05-11 19:22:00,
2013-05-11 14:28:00,75.7,61.3,29.88,ENE,72,2.0,3.0,61,0.00,,,0.12,Wunderground v.1.15,2013-05-11 19:28:00,
2013-05-11 14:33:00,75.7,61.3,29.87,North,352,2.0,2.0,61,0.00,,,0.12,Wunderground v.1.15,2013-05-11 19:33:00,
2013-05-11 14:38:00,76.1,60.7,29.87,NE,51,2.0,2.0,59,0.00,,,0.12,Wunderground v.1.15,2013-05-11 19:38:00,
2013-05-11 14:44:00,75.8,62.3,29.87,North,10,1.0,2.0,63,0.00,,,0.12,Wunderground v.1.15,2013-05-11 19:44:00,
2013-05-11 14:49:00,75.4,60.5,29.87,North,5,1.0,3.0,60,0.00,,,0.12,Wunderground v.1.15,2013-05-11 19:49:00,
2013-05-11 14:54:00,74.8,60.0,29.87,ENE,64,1.0,3.0,60,0.00,,,0.12,Wunderground v.1.15,2013-05-11 19:54:00,
2013-05-11 15:00:00,75.8,61.4,29.87,NNW,345,1.0,1.0,61,0.00,,,0.12,Wunderground v.1.15,2013-05-11 20:00:00,
2013-05-11 15:05:00,76.1,61.7,29.87,NE,47,2.0,3.0,61,0.00,,,0.12,Wunderground v.1.15,2013-05-11 20:05:00,
2013-05-11 15:10:00,75.7,61.8,29.87,SE,143,2.0,2.0,62,0.00,,,0.12,Wunderground v.1.15,2013-05-11 20:10:00,
2013-05-11 15:15:00,75.1,61.6,29.87,SE,144,2.0,5.0,63,0.00,,,0.12,Wunderground v.1.15,2013-05-11 20:15:00,
2013-05-11 15:21:00,74.4,61.9,29.88,WSW,252,2.0,2.0,65,0.00,,,0.12,Wunderground v.1.15,2013-05-11 20:21:00,
2013-05-11 15:26:00,74.1,61.6,29.87,SW,225,2.0,4.0,65,0.00,,,0.12,Wunderground v.1.15,2013-05-11 20:26:00,
2013-05-11 15:31:00,74.2,60.8,29.87,SW,219,2.0,4.0,63,0.00,,,0.12,Wunderground v.1.15,2013-05-11 20:31:00,
2013-05-11 15:37:00,73.9,60.5,29.87,ESE,116,2.0,5.0,63,0.00,,,0.12,Wunderground v.1.15,2013-05-11 20:37:00,
2013-05-11 15:42:00,73.7,61.2,29.87,WSW,253,2.0,3.0,65,0.00,,,0.12,Wunderground v.1.15,2013-05-11 20:42:00,
2013-05-11 15:47:00,73.3,60.4,29.87,SW,230,3.0,9.0,64,0.00,,,0.12,Wunderground v.1.15,2013-05-11 20:47:00,
2013-05-11 15:52:00,73.0,60.5,29.87,West,271,3.0,4.0,65,0.00,,,0.12,Wunderground v.1.15,2013-05-11 20:52:00,
2013-05-11 15:58:00,73.0,59.7,29.88,WSW,257,3.0,6.0,63,0.00,,,0.12,Wunderground v.1.15,2013-05-11 20:58:00,
2013-05-11 16:03:00,73.5,60.6,29.88,East,86,2.0,4.0,64,0.00,,,0.12,Wunderground v.1.15,2013-05-11 21:03:00,
2013-05-11 16:08:00,73.6,59.8,29.88,SSW,209,2.0,4.0,62,0.00,,,0.12,Wunderground v.1.15,2013-05-11 21:08:00,
2013-05-11 16:14:00,73.0,59.7,29.88,East,85,2.0,5.0,63,0.00,,,0.12,Wunderground v.1.15,2013-05-11 21:14:00,
2013-05-11 16:19:00,73.4,60.5,29.88,East,84,2.0,5.0,64,0.00,,,0.12,Wunderground v.1.15,2013-05-11 21:19:00,
2013-05-11 16:24:00,73.8,60.9,29.88,WNW,282,2.0,3.0,64,0.00,,,0.12,Wunderground v.1.15,2013-05-11 21:24:00,
2013-05-11 16:30:00,73.2,58.9,29.88,SW,222,2.0,2.0,61,0.00,,,0.12,Wunderground v.1.15,2013-05-11 21:30:00,
2013-05-11 16:36:00,73.0,59.2,29.88,West,275,1.0,6.0,62,0.00,,,0.12,Wunderground v.1.15,2013-05-11 21:36:00,
2013-05-11 16:41:00,73.1,59.3,29.88,WSW,257,1.0,2.0,62,0.00,,,0.12,Wunderground v.1.15,2013-05-11 21:41:00,
2013-05-11 16:46:00,73.1,59.8,29.88,WSW,252,1.0,3.0,63,0.00,,,0.12,Wunderground v.1.15,2013-05-11 21:46:00,
2013-05-11 16:52:00,72.7,60.3,29.88,ESE,114,2.0,6.0,65,0.00,,,0.12,Wunderground v.1.15,2013-05-11 21:52:00,
2013-05-11 16:57:00,72.0,59.6,29.88,SW,223,2.0,6.0,65,0.00,,,0.12,Wunderground v.1.15,2013-05-11 21:57:00,
2013-05-11 17:02:00,71.9,60.3,29.88,SW,223,2.0,2.0,67,0.00,,,0.12,Wunderground v.1.15,2013-05-11 22:02:00,
2013-05-11 17:08:00,71.8,60.7,29.88,WSW,249,2.0,4.0,68,0.00,,,0.12,Wunderground v.1.15,2013-05-11 22:08:00,
2013-05-11 17:13:00,71.6,59.6,29.88,SW,221,2.0,4.0,66,0.00,,,0.12,Wunderground v.1.15,2013-05-11 22:13:00,
2013-05-11 17:18:00,71.4,59.4,29.88,NE,41,2.0,4.0,66,0.00,,,0.12,Wunderground v.1.15,2013-05-11 22:18:00,
2013-05-11 17:23:00,71.3,59.4,29.88,SSW,197,1.0,2.0,66,0.00,,,0.12,Wunderground v.1.15,2013-05-11 22:23:00,
2013-05-11 17:29:00,71.3,59.4,29.88,WSW,244,1.0,2.0,66,0.00,,,0.12,Wunderground v.1.15,2013-05-11 22:29:00,
2013-05-11 17:34:00,71.0,59.5,29.88,WSW,252,2.0,2.0,67,0.00,,,0.12,Wunderground v.1.15,2013-05-11 22:34:00,
2013-05-11 17:39:00,70.7,59.2,29.87,WNW,290,2.0,3.0,67,0.00,,,0.12,Wunderground v.1.15,2013-05-11 22:39:00,
2013-05-11 17:45:00,70.4,58.5,29.87,SSW,194,2.0,4.0,66,0.00,,,0.12,Wunderground v.1.15,2013-05-11 22:45:00,
2013-05-11 17:50:00,70.1,58.6,29.87,WSW,245,2.0,2.0,67,0.00,,,0.12,Wunderground v.1.15,2013-05-11 22:50:00,
2013-05-11 17:55:00,69.6,59.0,29.88,SW,231,2.0,5.0,69,0.00,,,0.12,Wunderground v.1.15,2013-05-11 22:55:00,
2013-05-11 18:00:00,69.2,59.0,29.88,West,271,2.0,2.0,70,0.00,,,0.12,Wunderground v.1.15,2013-05-11 23:00:00,
2013-05-11 18:06:00,68.8,58.6,29.88,ESE,105,1.0,2.0,70,0.00,,,0.12,Wunderground v.1.15,2013-05-11 23:06:00,
2013-05-11 18:11:00,68.4,58.2,29.88,SW,222,1.0,2.0,70,0.00,,,0.12,Wunderground v.1.15,2013-05-11 23:11:00,
2013-05-11 18:16:00,68.1,58.3,29.89,SSW,209,1.0,3.0,71,0.00,,,0.12,Wunderground v.1.15,2013-05-11 23:16:00,
2013-05-11 18:22:00,68.1,57.9,29.89,SSW,209,2.0,3.0,70,0.00,,,0.12,Wunderground v.1.15,2013-05-11 23:22:00,
2013-05-11 18:27:00,67.8,57.3,29.89,WSW,249,2.0,4.0,69,0.00,,,0.12,Wunderground v.1.15,2013-05-11 23:27:00,
2013-05-11 18:32:00,67.5,57.0,29.89,SE,143,2.0,2.0,69,0.00,,,0.12,Wunderground v.1.15,2013-05-11 23:32:00,
2013-05-11 18:38:00,67.2,57.1,29.89,WSW,247,1.0,3.0,70,0.00,,,0.12,Wunderground v.1.15,2013-05-11 23:38:00,
2013-05-11 18:44:00,67.1,57.4,29.90,WSW,257,1.0,2.0,71,0.00,,,0.12,Wunderground v.1.15,2013-05-11 23:44:00,
2013-05-11 18:49:00,67.0,56.9,29.90,SW,226,1.0,4.0,70,0.00,,,0.12,Wunderground v.1.15,2013-05-11 23:49:00,
2013-05-11 18:54:00,67.0,56.9,29.90,SW,231,1.0,3.0,70,0.00,,,0.12,Wunderground v.1.15,2013-05-11 23:54:00,
2013-05-11 19:00:00,66.8,57.1,29.90,SSW,195,1.0,1.0,71,0.00,,,0.12,Wunderground v.1.15,2013-05-12 00:00:00,
2013-05-11 19:05:00,66.6,56.9,29.91,SW,219,1.0,4.0,71,0.00,,,0.12,Wunderground v.1.15,2013-05-12 00:05:00,
2013-05-11 19:10:00,66.4,56.3,29.91,SSW,202,2.0,3.0,70,0.00,,,0.12,Wunderground v.1.15,2013-05-12 00:10:00,
2013-05-11 19:16:00,66.2,56.5,29.91,WSW,252,2.0,3.0,71,0.00,,,0.12,Wunderground v.1.15,2013-05-12 00:16:00,
2013-05-11 19:21:00,66.1,56.8,29.92,SW,231,1.0,2.0,72,0.00,,,0.12,Wunderground v.1.15,2013-05-12 00:21:00,
2013-05-11 19:26:00,65.9,57.0,29.92,SW,221,1.0,2.0,73,0.00,,,0.12,Wunderground v.1.15,2013-05-12 00:26:00,
2013-05-11 19:31:00,65.6,56.3,29.92,South,169,1.0,1.0,72,0.00,,,0.12,Wunderground v.1.15,2013-05-12 00:31:00,
2013-05-11 19:37:00,65.3,56.4,29.92,WSW,240,1.0,2.0,73,0.00,,,0.12,Wunderground v.1.15,2013-05-12 00:37:00,
2013-05-11 19:42:00,65.0,56.1,29.92,SSW,195,1.0,1.0,73,0.00,,,0.12,Wunderground v.1.15,2013-05-12 00:42:00,
2013-05-11 19:47:00,64.6,56.1,29.92,SSE,166,1.0,3.0,74,0.00,,,0.12,Wunderground v.1.15,2013-05-12 00:47:00,
2013-05-11 19:53:00,64.3,55.8,29.93,SW,224,2.0,3.0,74,0.00,,,0.12,Wunderground v.1.15,2013-05-12 00:53:00,
2013-05-11 19:58:00,64.0,55.9,29.93,SW,220,2.0,3.0,75,0.00,,,0.12,Wunderground v.1.15,2013-05-12 00:58:00,
2013-05-11 20:03:00,63.6,55.9,29.93,SSW,208,1.0,2.0,76,0.00,,,0.12,Wunderground v.1.15,2013-05-12 01:03:00,
2013-05-11 20:08:00,63.2,55.9,29.94,SW,216,1.0,2.0,77,0.00,,,0.12,Wunderground v.1.15,2013-05-12 01:08:00,
2013-05-11 20:14:00,62.9,55.6,29.94,SW,235,1.0,2.0,77,0.00,,,0.12,Wunderground v.1.15,2013-05-12 01:14:00,
2013-05-11 20:19:00,62.7,55.4,29.94,SSW,213,2.0,4.0,77,0.00,,,0.12,Wunderground v.1.15,2013-05-12 01:19:00,
2013-05-11 20:24:00,62.7,55.4,29.94,East,97,2.0,2.0,77,0.00,,,0.12,Wunderground v.1.15,2013-05-12 01:24:00,
2013-05-11 20:30:00,62.6,55.3,29.94,SW,229,2.0,2.0,77,0.00,,,0.12,Wunderground v.1.15,2013-05-12 01:30:00,
2013-05-11 20:35:00,62.5,55.2,29.95,South,176,1.0,2.0,77,0.00,,,0.12,Wunderground v.1.15,2013-05-12 01:35:00,
2013-05-11 20:40:00,62.3,54.6,29.95,SE,126,1.0,2.0,76,0.00,,,0.12,Wunderground v.1.15,2013-05-12 01:40:00,
2013-05-11 20:46:00,62.0,54.3,29.95,SW,230,2.0,2.0,76,0.00,,,0.12,Wunderground v.1.15,2013-05-12 01:46:00,
2013-05-11 20:51:00,61.7,54.4,29.96,SW,236,1.0,1.0,77,0.00,,,0.12,Wunderground v.1.15,2013-05-12 01:51:00,
2013-05-11 20:56:00,61.5,54.6,29.96,South,190,1.0,3.0,78,0.00,,,0.12,Wunderground v.1.15,2013-05-12 01:56:00,
2013-05-11 21:01:00,61.3,54.0,29.96,SSW,207,1.0,2.0,77,0.00,,,0.12,Wunderground v.1.15,2013-05-12 02:01:00,
2013-05-11 21:07:00,61.1,53.8,29.96,SSE,155,1.0,2.0,77,0.00,,,0.12,Wunderground v.1.15,2013-05-12 02:07:00,
2013-05-11 21:12:00,60.8,53.2,29.97,SW,223,1.0,2.0,76,0.00,,,0.12,Wunderground v.1.15,2013-05-12 02:12:00,
2013-05-11 21:17:00,60.7,53.8,29.97,ESE,117,1.0,2.0,78,0.00,,,0.12,Wunderground v.1.15,2013-05-12 02:17:00,
2013-05-11 21:23:00,60.2,53.3,29.97,WSW,256,0.0,1.0,78,0.00,,,0.12,Wunderground v.1.15,2013-05-12 02:23:00,
2013-05-11 21:28:00,59.9,53.0,29.97,SE,131,0.0,1.0,78,0.00,,,0.12,Wunderground v.1.15,2013-05-12 02:28:00,
2013-05-11 21:33:00,59.5,53.0,29.98,SW,222,0.0,2.0,79,0.00,,,0.12,Wunderground v.1.15,2013-05-12 02:33:00,
2013-05-11 21:39:00,59.4,52.2,29.98,WSW,249,1.0,2.0,77,0.00,,,0.12,Wunderground v.1.15,2013-05-12 02:39:00,
2013-05-11 21:45:00,59.2,52.7,29.98,WSW,242,0.0,1.0,79,0.00,,,0.12,Wunderground v.1.15,2013-05-12 02:45:00,
2013-05-11 21:50:00,58.6,52.1,29.97,WSW,241,0.0,1.0,79,0.00,,,0.12,Wunderground v.1.15,2013-05-12 02:50:00,
2013-05-11 21:55:00,58.2,51.0,29.97,SE,127,0.0,1.0,77,0.00,,,0.12,Wunderground v.1.15,2013-05-12 02:55:00,
2013-05-11 22:01:00,57.8,51.3,29.97,ESE,117,1.0,1.0,79,0.00,,,0.12,Wunderground v.1.15,2013-05-12 03:01:00,
2013-05-11 22:06:00,57.3,51.9,29.98,SE,140,1.0,2.0,82,0.00,,,0.12,Wunderground v.1.15,2013-05-12 03:06:00,
2013-05-11 22:11:00,57.0,51.9,29.98,SE,137,1.0,1.0,83,0.00,,,0.12,Wunderground v.1.15,2013-05-12 03:11:00,
2013-05-11 22:17:00,56.6,51.5,29.98,East,84,0.0,1.0,83,0.00,,,0.12,Wunderground v.1.15,2013-05-12 03:17:00,
2013-05-11 22:22:00,56.2,51.7,29.99,SSW,211,0.0,1.0,85,0.00,,,0.12,Wunderground v.1.15,2013-05-12 03:22:00,
2013-05-11 22:27:00,55.9,50.8,29.98,WNW,289,0.0,1.0,83,0.00,,,0.12,Wunderground v.1.15,2013-05-12 03:27:00,
2013-05-11 22:32:00,55.9,51.1,29.98,WNW,289,0.0,1.0,84,0.00,,,0.12,Wunderground v.1.15,2013-05-12 03:32:00,
2013-05-11 22:38:00,55.8,51.4,29.99,West,275,1.0,2.0,85,0.00,,,0.12,Wunderground v.1.15,2013-05-12 03:38:00,
2013-05-11 22:43:00,55.4,51.3,29.99,SW,227,1.0,3.0,86,0.00,,,0.12,Wunderground v.1.15,2013-05-12 03:43:00,
2013-05-11 22:48:00,55.5,50.7,29.99,SW,233,1.0,3.0,84,0.00,,,0.12,Wunderground v.1.15,2013-05-12 03:48:00,
2013-05-11 22:54:00,56.0,50.6,29.98,WSW,238,1.0,4.0,82,0.00,,,0.12,Wunderground v.1.15,2013-05-12 03:54:00,
2013-05-11 22:59:00,56.1,50.7,29.99,West,281,1.0,4.0,82,0.00,,,0.12,Wunderground v.1.15,2013-05-12 03:59:00,
2013-05-11 23:01:00,56.1,50.3,29.98,WNW,296,1.0,1.0,81,0.00,,,0.12,Wunderground v.1.15,2013-05-12 04:01:00,
2013-05-11 23:02:00,56.1,50.7,29.98,WNW,296,0.0,1.0,82,0.00,,,0.12,Wunderground v.1.15,2013-05-12 04:02:00,
2013-05-11 23:03:00,56.1,50.7,29.99,WNW,297,0.0,1.0,82,0.00,,,0.12,Wunderground v.1.15,2013-05-12 04:03:00,
2013-05-11 23:05:00,55.9,50.8,29.99,SSE,156,1.0,2.0,83,0.00,,,0.12,Wunderground v.1.15,2013-05-12 04:05:00,
2013-05-11 23:06:00,55.9,50.8,29.99,East,99,0.0,2.0,83,0.00,,,0.12,Wunderground v.1.15,2013-05-12 04:06:00,
2013-05-11 23:11:00,55.6,50.5,29.99,East,98,0.0,1.0,83,0.00,,,0.12,Wunderground v.1.15,2013-05-12 04:11:00,
2013-05-11 23:17:00,55.6,50.5,29.98,SW,228,0.0,2.0,83,0.00,,,0.12,Wunderground v.1.15,2013-05-12 04:17:00,
2013-05-11 23:22:00,55.4,50.6,29.99,SE,124,0.0,1.0,84,0.00,,,0.12,Wunderground v.1.15,2013-05-12 04:22:00,
2013-05-11 23:27:00,55.1,50.4,29.98,ESE,122,1.0,2.0,84,0.00,,,0.12,Wunderground v.1.15,2013-05-12 04:27:00,
2013-05-11 23:33:00,54.9,50.2,29.98,ESE,122,0.0,1.0,84,0.00,,,0.12,Wunderground v.1.15,2013-05-12 04:33:00,
2013-05-11 23:38:00,54.9,50.5,29.99,East,93,0.0,1.0,85,0.00,,,0.12,Wunderground v.1.15,2013-05-12 04:38:00,
2013-05-11 23:43:00,54.9,50.5,29.99,East,93,0.0,1.0,85,0.00,,,0.12,Wunderground v.1.15,2013-05-12 04:43:00,
2013-05-11 23:49:00,54.7,50.3,29.99,South,190,0.0,1.0,85,0.00,,,0.12,Wunderground v.1.15,2013-05-12 04:49:00,
2013-05-11 23:54:00,54.6,50.2,29.99,South,190,0.0,1.0,85,0.00,,,0.12,Wunderground v.1.15,2013-05-12 04:54:00,
2013-05-11 23:59:00,54.5,50.4,29.99,South,169,0.0,1.0,86,0.00,,,0.12,Wunderground v.1.15,2013-05-12 04:59:00,